Claremore, OK (74017)

11:59 PM CDT on August 24, 2016 (GMT -0500)
Bon Terra | | Change Station

Elev 614 ft 36.32 °N, 95.58 °W | Updated 60 seconds ago

Clear
Clear
82.5 °F
Feels Like 86 °F
N
4.0
Wind Variable Wind from ESE
Gusts 7.0 mph

Today
High -- | Low -- °F
--% Chance of Precip.
Yesterday
High -- | Low -- °F
Precip. -- in
Pressure 30.05 in
Visibility 10.0 miles
Clouds Clear
Heat Index 86 °F
Dew Point 68 °F
Humidity 62%
Rainfall in
Snow Depth Not available.
6:47 AM 8:00 PM
Waning Gibbous, 49% visible
METAR KGCM 250435Z AUTO 17009KT 10SM CLR 26/18 A3005 RMK AO2
Pressure 30.05 in
Visibility 10.0 miles
Clouds Clear
Heat Index 86 °F
Dew Point 68 °F
Humidity 62%
Rainfall in
Snow Depth Not available.
6:47 AM 8:00 PM
Waning Gibbous, 49% visible
METAR KGCM 250435Z AUTO 17009KT 10SM CLR 26/18 A3005 RMK AO2

10-Day Weather Forecast

Almanac

Astronomy

Aug. 24, 2016 Rise Set
Actual Time
Civil Twilight
Nautical Twilight
Astronomical Twilight
Moon
Length of Visible Light
Length of Day
Tomorrow will be .
, % of the Moon is Illuminated

Today's Extremes

State Highs State Lows

Community

WunderPhotos

Upload Photos

1,934,798 photos uploaded!

WunderBlog® & News

Nearby

Air Quality

  Air Quality AQ Index Pollutant
Not available.

Snow Depth

Station Depth Elevation

Earthquake Activity

City Distance Mag. Time & Date
Minimum magnitude displayed is 2.5.

Coastal Water Temperatures

Place Temperature

Stations

Nearby Weather Stations

Station Location Temp. Windchill Dew Point Humidity Wind Precip. Elev Updated Type
                   

Watches & Warnings

There are currently no watches in effect.